This is the latest recevied weather packets stored in our database for station/object N3FAA. If no packets are shown the sender has not sent any weather packets the latest 1 day(s).
| Time | Temp. | Humidity | Pressure | Rain* | Wind** | Luminosity | Snow |
|---|---|---|---|---|---|---|---|
| 1778018688 | 18.89° C | 39% | 1009.8 hPa | 0 mm | 3.13 m/s, 212° | 640 W/m² | - |
| 1778018386 | 18.89° C | 40% | 1009.6 hPa | 0 mm | 4.47 m/s, 257° | 452 W/m² | - |
| 1778018084 | 18.89° C | 39% | 1009.9 hPa | 0 mm | 4.92 m/s, 251° | 365 W/m² | - |
| 1778017781 | 19.44° C | 40% | 1009.9 hPa | 0 mm | 4.47 m/s, 287° | 366 W/m² | - |
| 1778017479 | 18.33° C | 42% | 1009.8 hPa | 0 mm | 3.13 m/s, 240° | 943 W/m² | - |
| 1778017176 | 19.44° C | 40% | 1009.6 hPa | 0 mm | 3.13 m/s, 242° | 399 W/m² | - |
| 1778016874 | 18.89° C | 39% | 1009.9 hPa | 0 mm | 5.36 m/s, 248° | 457 W/m² | - |
| 1778016570 | 18.89° C | 40% | 1009.9 hPa | 0 mm | 3.58 m/s, 266° | 974 W/m² | - |
| 1778016267 | 19.44° C | 43% | 1010 hPa | 0 mm | 3.58 m/s, 213° | 421 W/m² | - |
| 1778015963 | 19.44° C | 41% | 1009.9 hPa | 0 mm | 6.26 m/s, 261° | 989 W/m² | - |
| 1778015660 | 18.89° C | 43% | 1010 hPa | 0 mm | 3.13 m/s, 275° | 691 W/m² | - |
| 1778015357 | 18.89° C | 45% | 1009.9 hPa | 0 mm | 5.81 m/s, 251° | 544 W/m² | - |
| 1778015063 | 18.33° C | 45% | 1009.9 hPa | 0 mm | 4.47 m/s, 226° | 787 W/m² | - |
| 1778014751 | 18.33° C | 45% | 1009.9 hPa | 0 mm | 4.92 m/s, 241° | 393 W/m² | - |
| 1778014449 | 17.78° C | 45% | 1009.8 hPa | 0 mm | 5.81 m/s, 243° | 443 W/m² | - |
| 1778014146 | 17.78° C | 47% | 1010 hPa | 0 mm | 2.68 m/s, 236° | 429 W/m² | - |
| 1778013843 | 17.78° C | 47% | 1009.9 hPa | 0 mm | 7.6 m/s, 239° | 424 W/m² | - |
| 1778013541 | 17.22° C | 49% | 1009.9 hPa | 0 mm | 3.13 m/s, 227° | 652 W/m² | - |
| 1778013237 | 17.78° C | 47% | 1010.2 hPa | 0 mm | 4.92 m/s, 244° | 353 W/m² | - |
| 1778012933 | 16.67° C | 50% | 1010.1 hPa | 0 mm | 3.13 m/s, 231° | 324 W/m² | - |
| 1778012630 | 16.67° C | 50% | 1010.5 hPa | 0 mm | 4.92 m/s, 241° | 265 W/m² | - |
| 1778012326 | 16.67° C | 51% | 1010.1 hPa | 0 mm | 2.68 m/s, 256° | 266 W/m² | - |
| 1778012024 | 16.67° C | 51% | 1010.1 hPa | 0 mm | 7.6 m/s, 260° | 303 W/m² | - |
| 1778011722 | 16.11° C | 51% | 1010.3 hPa | 0 mm | 5.36 m/s, 247° | 272 W/m² | - |
| 1778011418 | 16.67° C | 51% | 1010.3 hPa | 0 mm | 3.13 m/s, 260° | 261 W/m² | - |
* Rain latest hour (hover to see other rain measurements)
** Current wind speed in m/s (hover to see current wind gust speed)